sensor_id;sensor_type;location;lat;lon;timestamp;temperature;humidity
4922;DHT22;16625;53.624;10.106;2022-07-04T00:01:42;14.40;99.90
4922;DHT22;16625;53.624;10.106;2022-07-04T00:04:09;14.30;99.90
4922;DHT22;16625;53.624;10.106;2022-07-04T00:06:36;14.30;99.90
4922;DHT22;16625;53.624;10.106;2022-07-04T00:09:04;14.30;99.90
4922;DHT22;16625;53.624;10.106;2022-07-04T00:11:31;14.40;99.90
4922;DHT22;16625;53.624;10.106;2022-07-04T00:13:58;14.30;99.90
4922;DHT22;16625;53.624;10.106;2022-07-04T00:16:25;14.30;99.90
4922;DHT22;16625;53.624;10.106;2022-07-04T00:18:51;14.30;99.90
4922;DHT22;16625;53.624;10.106;2022-07-04T00:21:18;14.30;99.90
4922;DHT22;16625;53.624;10.106;2022-07-04T00:23:45;14.30;99.90
4922;DHT22;16625;53.624;10.106;2022-07-04T00:26:14;14.30;99.90
4922;DHT22;16625;53.624;10.106;2022-07-04T00:28:41;14.30;99.90
4922;DHT22;16625;53.624;10.106;2022-07-04T00:31:07;14.40;99.90
4922;DHT22;16625;53.624;10.106;2022-07-04T00:33:34;14.50;99.90
4922;DHT22;16625;53.624;10.106;2022-07-04T00:36:01;14.50;99.90
4922;DHT22;16625;53.624;10.106;2022-07-04T00:38:28;14.80;99.90
4922;DHT22;16625;53.624;10.106;2022-07-04T00:40:55;14.40;99.90
4922;DHT22;16625;53.624;10.106;2022-07-04T00:43:24;14.40;99.90
4922;DHT22;16625;53.624;10.106;2022-07-04T00:45:51;14.30;99.90
4922;DHT22;16625;53.624;10.106;2022-07-04T00:48:18;14.30;99.90
4922;DHT22;16625;53.624;10.106;2022-07-04T00:50:47;15.20;99.90
4922;DHT22;16625;53.624;10.106;2022-07-04T00:53:14;14.20;99.90
4922;DHT22;16625;53.624;10.106;2022-07-04T00:55:42;14.20;99.90
4922;DHT22;16625;53.624;10.106;2022-07-04T00:58:09;14.30;99.90
4922;DHT22;16625;53.624;10.106;2022-07-04T01:00:38;14.20;99.90
4922;DHT22;16625;53.624;10.106;2022-07-04T01:03:04;14.20;99.90
4922;DHT22;16625;53.624;10.106;2022-07-04T01:05:32;14.10;99.90
4922;DHT22;16625;53.624;10.106;2022-07-04T01:07:58;14.10;99.90
4922;DHT22;16625;53.624;10.106;2022-07-04T01:10:26;14.10;99.90
4922;DHT22;16625;53.624;10.106;2022-07-04T01:12:52;14.10;99.90
4922;DHT22;16625;53.624;10.106;2022-07-04T01:15:20;14.00;99.90
4922;DHT22;16625;53.624;10.106;2022-07-04T01:17:49;14.00;99.90
4922;DHT22;16625;53.624;10.106;2022-07-04T01:20:17;13.90;99.90
4922;DHT22;16625;53.624;10.106;2022-07-04T01:22:44;13.90;99.90
4922;DHT22;16625;53.624;10.106;2022-07-04T01:25:11;13.90;99.90
4922;DHT22;16625;53.624;10.106;2022-07-04T01:27:39;13.90;99.90
4922;DHT22;16625;53.624;10.106;2022-07-04T01:30:07;14.00;99.90
4922;DHT22;16625;53.624;10.106;2022-07-04T01:32:34;13.90;99.90
4922;DHT22;16625;53.624;10.106;2022-07-04T01:35:01;13.90;99.90
4922;DHT22;16625;53.624;10.106;2022-07-04T01:37:29;13.80;99.90
4922;DHT22;16625;53.624;10.106;2022-07-04T01:39:56;13.80;99.90
4922;DHT22;16625;53.624;10.106;2022-07-04T01:42:22;13.80;99.90
4922;DHT22;16625;53.624;10.106;2022-07-04T01:44:49;13.80;99.90
4922;DHT22;16625;53.624;10.106;2022-07-04T01:47:16;13.70;99.90
4922;DHT22;16625;53.624;10.106;2022-07-04T01:49:43;13.80;99.90
4922;DHT22;16625;53.624;10.106;2022-07-04T01:52:10;13.70;99.90
4922;DHT22;16625;53.624;10.106;2022-07-04T01:54:38;13.70;99.90
4922;DHT22;16625;53.624;10.106;2022-07-04T01:57:05;13.70;99.90
4922;DHT22;16625;53.624;10.106;2022-07-04T01:59:32;13.70;99.90
4922;DHT22;16625;53.624;10.106;2022-07-04T02:02:16;13.70;99.90
4922;DHT22;16625;53.624;10.106;2022-07-04T02:04:43;13.60;99.90
4922;DHT22;16625;53.624;10.106;2022-07-04T02:07:10;13.60;99.90
4922;DHT22;16625;53.624;10.106;2022-07-04T02:09:38;13.60;99.90
4922;DHT22;16625;53.624;10.106;2022-07-04T02:12:05;13.70;99.90
4922;DHT22;16625;53.624;10.106;2022-07-04T02:14:50;13.60;99.90
4922;DHT22;16625;53.624;10.106;2022-07-04T02:17:16;13.60;99.90
4922;DHT22;16625;53.624;10.106;2022-07-04T02:19:43;13.60;99.90
4922;DHT22;16625;53.624;10.106;2022-07-04T02:22:10;13.60;99.90
4922;DHT22;16625;53.624;10.106;2022-07-04T02:24:39;13.70;99.90
4922;DHT22;16625;53.624;10.106;2022-07-04T02:27:06;13.60;99.90
4922;DHT22;16625;53.624;10.106;2022-07-04T02:29:33;13.70;99.90
4922;DHT22;16625;53.624;10.106;2022-07-04T02:32:00;13.60;99.90
4922;DHT22;16625;53.624;10.106;2022-07-04T02:34:27;13.60;99.90
4922;DHT22;16625;53.624;10.106;2022-07-04T02:36:54;13.60;99.90
4922;DHT22;16625;53.624;10.106;2022-07-04T02:39:21;13.50;99.90
4922;DHT22;16625;53.624;10.106;2022-07-04T02:41:49;13.50;99.90
4922;DHT22;16625;53.624;10.106;2022-07-04T02:44:16;13.40;99.90
4922;DHT22;16625;53.624;10.106;2022-07-04T02:46:43;13.50;99.90
4922;DHT22;16625;53.624;10.106;2022-07-04T02:49:10;13.40;99.90
4922;DHT22;16625;53.624;10.106;2022-07-04T02:51:37;13.40;99.90
4922;DHT22;16625;53.624;10.106;2022-07-04T02:54:04;13.40;99.90
4922;DHT22;16625;53.624;10.106;2022-07-04T02:56:30;13.50;99.90
4922;DHT22;16625;53.624;10.106;2022-07-04T02:58:58;13.50;99.90
4922;DHT22;16625;53.624;10.106;2022-07-04T03:01:25;13.50;99.90
4922;DHT22;16625;53.624;10.106;2022-07-04T03:03:52;13.50;99.90
4922;DHT22;16625;53.624;10.106;2022-07-04T03:06:19;13.40;99.90
4922;DHT22;16625;53.624;10.106;2022-07-04T03:08:46;13.50;99.90
4922;DHT22;16625;53.624;10.106;2022-07-04T03:11:13;13.50;99.90
4922;DHT22;16625;53.624;10.106;2022-07-04T03:13:40;13.40;99.90
4922;DHT22;16625;53.624;10.106;2022-07-04T03:16:08;13.40;99.90
4922;DHT22;16625;53.624;10.106;2022-07-04T03:18:35;13.30;99.90
4922;DHT22;16625;53.624;10.106;2022-07-04T03:21:02;13.40;99.90
4922;DHT22;16625;53.624;10.106;2022-07-04T03:23:30;13.30;99.90
4922;DHT22;16625;53.624;10.106;2022-07-04T03:25:56;13.40;99.90
4922;DHT22;16625;53.624;10.106;2022-07-04T03:28:23;13.40;99.90
4922;DHT22;16625;53.624;10.106;2022-07-04T03:30:50;13.40;99.90
4922;DHT22;16625;53.624;10.106;2022-07-04T03:33:20;13.40;99.90
4922;DHT22;16625;53.624;10.106;2022-07-04T03:35:47;13.40;99.90
4922;DHT22;16625;53.624;10.106;2022-07-04T03:38:13;13.30;99.90
4922;DHT22;16625;53.624;10.106;2022-07-04T03:40:40;13.40;99.90
4922;DHT22;16625;53.624;10.106;2022-07-04T03:43:07;13.40;99.90
4922;DHT22;16625;53.624;10.106;2022-07-04T03:45:34;13.40;99.90
4922;DHT22;16625;53.624;10.106;2022-07-04T03:48:01;13.40;99.90
4922;DHT22;16625;53.624;10.106;2022-07-04T03:50:30;13.40;99.90
4922;DHT22;16625;53.624;10.106;2022-07-04T03:52:57;13.50;99.90
4922;DHT22;16625;53.624;10.106;2022-07-04T03:55:24;13.50;99.90
4922;DHT22;16625;53.624;10.106;2022-07-04T03:57:50;13.50;99.90
4922;DHT22;16625;53.624;10.106;2022-07-04T04:00:17;13.50;99.90
4922;DHT22;16625;53.624;10.106;2022-07-04T04:02:44;13.50;99.90
4922;DHT22;16625;53.624;10.106;2022-07-04T04:05:11;13.50;99.90
4922;DHT22;16625;53.624;10.106;2022-07-04T04:07:54;13.50;99.90
4922;DHT22;16625;53.624;10.106;2022-07-04T04:10:21;13.50;99.90
4922;DHT22;16625;53.624;10.106;2022-07-04T04:12:48;13.60;99.90
4922;DHT22;16625;53.624;10.106;2022-07-04T04:15:15;13.60;99.90
4922;DHT22;16625;53.624;10.106;2022-07-04T04:17:45;13.60;99.90
4922;DHT22;16625;53.624;10.106;2022-07-04T04:20:12;13.70;99.90
4922;DHT22;16625;53.624;10.106;2022-07-04T04:22:39;13.70;99.90
4922;DHT22;16625;53.624;10.106;2022-07-04T04:25:07;13.70;99.90
4922;DHT22;16625;53.624;10.106;2022-07-04T04:27:34;13.80;99.90
4922;DHT22;16625;53.624;10.106;2022-07-04T04:30:01;13.80;99.90
4922;DHT22;16625;53.624;10.106;2022-07-04T04:32:28;13.90;99.90
4922;DHT22;16625;53.624;10.106;2022-07-04T04:34:55;13.80;99.90
4922;DHT22;16625;53.624;10.106;2022-07-04T04:37:22;13.90;99.90
4922;DHT22;16625;53.624;10.106;2022-07-04T04:39:48;13.90;99.90
4922;DHT22;16625;53.624;10.106;2022-07-04T04:42:16;13.80;99.90
4922;DHT22;16625;53.624;10.106;2022-07-04T04:44:43;14.00;99.90
4922;DHT22;16625;53.624;10.106;2022-07-04T04:47:10;14.70;99.90
4922;DHT22;16625;53.624;10.106;2022-07-04T04:49:37;14.10;99.90
4922;DHT22;16625;53.624;10.106;2022-07-04T04:52:04;14.10;99.90
4922;DHT22;16625;53.624;10.106;2022-07-04T04:54:32;14.20;99.90
4922;DHT22;16625;53.624;10.106;2022-07-04T04:56:59;14.20;99.90
4922;DHT22;16625;53.624;10.106;2022-07-04T04:59:28;14.30;99.90
4922;DHT22;16625;53.624;10.106;2022-07-04T05:01:55;14.30;99.90
4922;DHT22;16625;53.624;10.106;2022-07-04T05:04:23;14.50;99.90
4922;DHT22;16625;53.624;10.106;2022-07-04T05:06:50;14.50;99.90
4922;DHT22;16625;53.624;10.106;2022-07-04T05:09:17;14.60;99.90
4922;DHT22;16625;53.624;10.106;2022-07-04T05:11:45;14.60;99.90
4922;DHT22;16625;53.624;10.106;2022-07-04T05:14:12;14.70;99.90
4922;DHT22;16625;53.624;10.106;2022-07-04T05:16:40;14.70;99.90
4922;DHT22;16625;53.624;10.106;2022-07-04T05:19:06;14.80;99.90
4922;DHT22;16625;53.624;10.106;2022-07-04T05:21:34;14.90;99.90
4922;DHT22;16625;53.624;10.106;2022-07-04T05:24:00;15.00;99.90
4922;DHT22;16625;53.624;10.106;2022-07-04T05:26:27;15.00;99.90
4922;DHT22;16625;53.624;10.106;2022-07-04T05:28:54;15.10;99.90
4922;DHT22;16625;53.624;10.106;2022-07-04T05:31:22;15.20;99.90
4922;DHT22;16625;53.624;10.106;2022-07-04T05:33:51;15.30;99.90
4922;DHT22;16625;53.624;10.106;2022-07-04T05:36:18;15.40;99.90
4922;DHT22;16625;53.624;10.106;2022-07-04T05:38:45;15.40;99.90
4922;DHT22;16625;53.624;10.106;2022-07-04T05:41:12;15.50;99.90
4922;DHT22;16625;53.624;10.106;2022-07-04T05:43:38;15.60;99.90
4922;DHT22;16625;53.624;10.106;2022-07-04T05:46:05;15.70;99.90
4922;DHT22;16625;53.624;10.106;2022-07-04T05:48:32;15.80;99.90
4922;DHT22;16625;53.624;10.106;2022-07-04T05:51:00;15.90;99.90
4922;DHT22;16625;53.624;10.106;2022-07-04T05:53:28;16.00;99.90
4922;DHT22;16625;53.624;10.106;2022-07-04T05:55:55;16.20;99.90
4922;DHT22;16625;53.624;10.106;2022-07-04T05:58:22;16.20;99.90
4922;DHT22;16625;53.624;10.106;2022-07-04T06:00:49;16.30;99.90
4922;DHT22;16625;53.624;10.106;2022-07-04T06:03:16;16.40;99.90
4922;DHT22;16625;53.624;10.106;2022-07-04T06:05:42;16.50;99.90
4922;DHT22;16625;53.624;10.106;2022-07-04T06:08:10;16.50;99.90
4922;DHT22;16625;53.624;10.106;2022-07-04T06:10:38;17.30;99.90
4922;DHT22;16625;53.624;10.106;2022-07-04T06:13:05;16.80;99.90
4922;DHT22;16625;53.624;10.106;2022-07-04T06:15:32;16.80;99.90
4922;DHT22;16625;53.624;10.106;2022-07-04T06:17:59;17.00;99.90
4922;DHT22;16625;53.624;10.106;2022-07-04T06:20:27;17.00;99.90
4922;DHT22;16625;53.624;10.106;2022-07-04T06:22:54;17.00;99.90
4922;DHT22;16625;53.624;10.106;2022-07-04T06:25:22;17.30;99.90
4922;DHT22;16625;53.624;10.106;2022-07-04T06:27:52;17.20;99.90
4922;DHT22;16625;53.624;10.106;2022-07-04T06:30:19;17.50;99.90
4922;DHT22;16625;53.624;10.106;2022-07-04T06:32:47;17.40;99.90
4922;DHT22;16625;53.624;10.106;2022-07-04T06:35:19;17.40;99.90
4922;DHT22;16625;53.624;10.106;2022-07-04T06:38:03;17.50;99.90
4922;DHT22;16625;53.624;10.106;2022-07-04T06:40:31;17.80;99.90
4922;DHT22;16625;53.624;10.106;2022-07-04T06:42:58;18.10;99.90
4922;DHT22;16625;53.624;10.106;2022-07-04T06:45:25;18.70;99.90
4922;DHT22;16625;53.624;10.106;2022-07-04T06:47:52;18.40;99.90
4922;DHT22;16625;53.624;10.106;2022-07-04T06:50:19;18.30;99.90
4922;DHT22;16625;53.624;10.106;2022-07-04T06:52:46;18.50;99.90
4922;DHT22;16625;53.624;10.106;2022-07-04T06:55:13;18.60;99.90
4922;DHT22;16625;53.624;10.106;2022-07-04T06:57:41;18.70;99.90
4922;DHT22;16625;53.624;10.106;2022-07-04T07:00:09;18.80;99.90
4922;DHT22;16625;53.624;10.106;2022-07-04T07:02:36;18.90;99.90
4922;DHT22;16625;53.624;10.106;2022-07-04T07:05:04;18.90;99.90
4922;DHT22;16625;53.624;10.106;2022-07-04T07:07:32;18.90;99.90
4922;DHT22;16625;53.624;10.106;2022-07-04T07:09:59;18.70;99.90
4922;DHT22;16625;53.624;10.106;2022-07-04T07:12:29;18.60;99.90
4922;DHT22;16625;53.624;10.106;2022-07-04T07:14:57;18.50;99.90
4922;DHT22;16625;53.624;10.106;2022-07-04T07:17:24;18.60;99.90
4922;DHT22;16625;53.624;10.106;2022-07-04T07:19:52;18.70;99.90
4922;DHT22;16625;53.624;10.106;2022-07-04T07:22:19;18.70;99.90
4922;DHT22;16625;53.624;10.106;2022-07-04T07:24:46;18.50;99.90
4922;DHT22;16625;53.624;10.106;2022-07-04T07:27:13;18.70;99.90
4922;DHT22;16625;53.624;10.106;2022-07-04T07:29:40;19.10;99.90
4922;DHT22;16625;53.624;10.106;2022-07-04T07:32:08;19.30;99.90
4922;DHT22;16625;53.624;10.106;2022-07-04T07:34:35;19.30;99.90
4922;DHT22;16625;53.624;10.106;2022-07-04T07:37:03;19.60;99.90
4922;DHT22;16625;53.624;10.106;2022-07-04T07:39:30;19.70;99.90
4922;DHT22;16625;53.624;10.106;2022-07-04T07:41:57;20.20;99.90
4922;DHT22;16625;53.624;10.106;2022-07-04T07:44:23;20.80;99.90
4922;DHT22;16625;53.624;10.106;2022-07-04T07:46:50;20.00;99.90
4922;DHT22;16625;53.624;10.106;2022-07-04T07:49:18;19.50;99.90
4922;DHT22;16625;53.624;10.106;2022-07-04T07:51:45;19.30;99.90
4922;DHT22;16625;53.624;10.106;2022-07-04T07:54:12;19.30;99.90
4922;DHT22;16625;53.624;10.106;2022-07-04T07:56:39;19.50;99.90
4922;DHT22;16625;53.624;10.106;2022-07-04T07:59:06;19.50;99.90
4922;DHT22;16625;53.624;10.106;2022-07-04T08:01:33;19.50;99.90
4922;DHT22;16625;53.624;10.106;2022-07-04T08:04:00;19.50;99.90
4922;DHT22;16625;53.624;10.106;2022-07-04T08:06:45;19.70;99.90
4922;DHT22;16625;53.624;10.106;2022-07-04T08:09:12;19.40;99.90
4922;DHT22;16625;53.624;10.106;2022-07-04T08:11:40;19.70;99.90
4922;DHT22;16625;53.624;10.106;2022-07-04T08:14:07;19.90;99.90
4922;DHT22;16625;53.624;10.106;2022-07-04T08:16:34;20.00;99.90
4922;DHT22;16625;53.624;10.106;2022-07-04T08:19:01;20.20;99.90
4922;DHT22;16625;53.624;10.106;2022-07-04T08:21:28;20.40;99.90
4922;DHT22;16625;53.624;10.106;2022-07-04T08:23:56;20.70;99.90
4922;DHT22;16625;53.624;10.106;2022-07-04T08:26:25;20.70;99.90
4922;DHT22;16625;53.624;10.106;2022-07-04T08:28:52;20.60;99.90
4922;DHT22;16625;53.624;10.106;2022-07-04T08:31:23;20.10;99.90
4922;DHT22;16625;53.624;10.106;2022-07-04T08:33:50;20.10;99.90
4922;DHT22;16625;53.624;10.106;2022-07-04T08:36:18;20.00;99.90
4922;DHT22;16625;53.624;10.106;2022-07-04T08:38:46;20.30;99.90
4922;DHT22;16625;53.624;10.106;2022-07-04T08:41:15;20.00;99.90
4922;DHT22;16625;53.624;10.106;2022-07-04T08:43:42;20.50;99.90
4922;DHT22;16625;53.624;10.106;2022-07-04T08:46:12;20.40;99.90
4922;DHT22;16625;53.624;10.106;2022-07-04T08:48:43;20.20;99.90
4922;DHT22;16625;53.624;10.106;2022-07-04T08:51:16;19.80;99.90
4922;DHT22;16625;53.624;10.106;2022-07-04T08:53:50;19.80;99.90
4922;DHT22;16625;53.624;10.106;2022-07-04T08:56:21;20.30;99.90
4922;DHT22;16625;53.624;10.106;2022-07-04T08:59:06;20.70;99.90
4922;DHT22;16625;53.624;10.106;2022-07-04T09:01:34;21.10;99.90
4922;DHT22;16625;53.624;10.106;2022-07-04T09:04:01;21.40;99.90
4922;DHT22;16625;53.624;10.106;2022-07-04T09:06:30;21.70;99.90
4922;DHT22;16625;53.624;10.106;2022-07-04T09:08:58;22.00;99.90
4922;DHT22;16625;53.624;10.106;2022-07-04T09:11:26;21.90;99.90
4922;DHT22;16625;53.624;10.106;2022-07-04T09:13:54;20.80;99.90
4922;DHT22;16625;53.624;10.106;2022-07-04T09:16:22;20.60;99.90
4922;DHT22;16625;53.624;10.106;2022-07-04T09:18:53;20.60;99.90
4922;DHT22;16625;53.624;10.106;2022-07-04T09:21:21;20.60;99.90
4922;DHT22;16625;53.624;10.106;2022-07-04T09:23:49;20.40;99.90
4922;DHT22;16625;53.624;10.106;2022-07-04T09:26:18;20.20;99.90
4922;DHT22;16625;53.624;10.106;2022-07-04T09:28:54;20.20;99.90
4922;DHT22;16625;53.624;10.106;2022-07-04T09:31:25;20.30;99.90
4922;DHT22;16625;53.624;10.106;2022-07-04T09:33:54;20.40;99.90
4922;DHT22;16625;53.624;10.106;2022-07-04T09:36:25;20.60;99.90
4922;DHT22;16625;53.624;10.106;2022-07-04T09:39:11;20.70;99.90
4922;DHT22;16625;53.624;10.106;2022-07-04T09:41:54;20.90;99.90
4922;DHT22;16625;53.624;10.106;2022-07-04T09:44:25;20.80;99.90
4922;DHT22;16625;53.624;10.106;2022-07-04T09:46:52;20.70;99.90
4922;DHT22;16625;53.624;10.106;2022-07-04T09:49:20;20.70;99.90
4922;DHT22;16625;53.624;10.106;2022-07-04T09:51:48;20.80;99.90
4922;DHT22;16625;53.624;10.106;2022-07-04T09:54:23;21.30;99.90
4922;DHT22;16625;53.624;10.106;2022-07-04T09:56:53;21.50;99.90
4922;DHT22;16625;53.624;10.106;2022-07-04T09:59:21;21.60;99.90
4922;DHT22;16625;53.624;10.106;2022-07-04T10:01:50;21.80;99.90
4922;DHT22;16625;53.624;10.106;2022-07-04T10:04:17;21.90;99.90
4922;DHT22;16625;53.624;10.106;2022-07-04T10:06:46;22.20;99.90
4922;DHT22;16625;53.624;10.106;2022-07-04T10:09:15;22.20;99.90
4922;DHT22;16625;53.624;10.106;2022-07-04T10:11:44;22.10;99.90
4922;DHT22;16625;53.624;10.106;2022-07-04T10:14:13;22.20;99.90
4922;DHT22;16625;53.624;10.106;2022-07-04T10:16:41;22.00;99.90
4922;DHT22;16625;53.624;10.106;2022-07-04T10:19:10;22.10;99.90
4922;DHT22;16625;53.624;10.106;2022-07-04T10:21:38;22.80;99.90
4922;DHT22;16625;53.624;10.106;2022-07-04T10:24:06;22.90;99.90
4922;DHT22;16625;53.624;10.106;2022-07-04T10:26:33;22.90;99.90
4922;DHT22;16625;53.624;10.106;2022-07-04T10:29:01;22.30;99.90
4922;DHT22;16625;53.624;10.106;2022-07-04T10:31:29;22.50;99.90
4922;DHT22;16625;53.624;10.106;2022-07-04T10:33:58;22.40;99.90
4922;DHT22;16625;53.624;10.106;2022-07-04T10:36:27;22.40;99.90
4922;DHT22;16625;53.624;10.106;2022-07-04T10:38:57;22.00;99.90
4922;DHT22;16625;53.624;10.106;2022-07-04T10:41:27;22.00;99.90
4922;DHT22;16625;53.624;10.106;2022-07-04T10:44:02;22.30;99.90
4922;DHT22;16625;53.624;10.106;2022-07-04T10:46:47;22.00;99.90
4922;DHT22;16625;53.624;10.106;2022-07-04T10:49:31;22.10;99.90
4922;DHT22;16625;53.624;10.106;2022-07-04T10:52:12;22.20;99.90
4922;DHT22;16625;53.624;10.106;2022-07-04T10:54:40;22.00;99.90
4922;DHT22;16625;53.624;10.106;2022-07-04T10:57:13;21.80;99.90
4922;DHT22;16625;53.624;10.106;2022-07-04T10:59:41;21.80;99.90
4922;DHT22;16625;53.624;10.106;2022-07-04T11:02:25;22.50;99.90
4922;DHT22;16625;53.624;10.106;2022-07-04T11:04:59;22.90;99.90
4922;DHT22;16625;53.624;10.106;2022-07-04T11:08:01;23.30;99.90
4922;DHT22;16625;53.624;10.106;2022-07-04T11:10:32;23.10;99.90
4922;DHT22;16625;53.624;10.106;2022-07-04T11:13:08;22.90;99.90
4922;DHT22;16625;53.624;10.106;2022-07-04T11:16:10;22.50;99.90
4922;DHT22;16625;53.624;10.106;2022-07-04T11:18:41;22.80;99.90
4922;DHT22;16625;53.624;10.106;2022-07-04T11:21:23;22.80;99.90
4922;DHT22;16625;53.624;10.106;2022-07-04T11:23:54;22.60;99.90
4922;DHT22;16625;53.624;10.106;2022-07-04T11:26:22;22.50;99.90
4922;DHT22;16625;53.624;10.106;2022-07-04T11:28:49;22.50;99.90
4922;DHT22;16625;53.624;10.106;2022-07-04T11:31:16;22.40;99.90
4922;DHT22;16625;53.624;10.106;2022-07-04T11:33:44;22.30;99.90
4922;DHT22;16625;53.624;10.106;2022-07-04T11:36:13;22.00;99.90
4922;DHT22;16625;53.624;10.106;2022-07-04T11:38:50;21.80;99.90
4922;DHT22;16625;53.624;10.106;2022-07-04T11:41:21;21.50;99.90
4922;DHT22;16625;53.624;10.106;2022-07-04T11:44:07;21.40;99.90
4922;DHT22;16625;53.624;10.106;2022-07-04T11:47:02;21.40;99.90
4922;DHT22;16625;53.624;10.106;2022-07-04T11:49:29;21.60;99.90
4922;DHT22;16625;53.624;10.106;2022-07-04T11:51:56;21.70;99.90
4922;DHT22;16625;53.624;10.106;2022-07-04T11:54:23;22.20;99.90
4922;DHT22;16625;53.624;10.106;2022-07-04T11:56:51;21.90;99.90
4922;DHT22;16625;53.624;10.106;2022-07-04T11:59:18;22.30;99.90
4922;DHT22;16625;53.624;10.106;2022-07-04T12:01:45;22.70;99.90
4922;DHT22;16625;53.624;10.106;2022-07-04T12:04:15;23.00;99.90
4922;DHT22;16625;53.624;10.106;2022-07-04T12:06:44;23.10;99.90
4922;DHT22;16625;53.624;10.106;2022-07-04T12:09:11;23.00;99.90
4922;DHT22;16625;53.624;10.106;2022-07-04T12:11:57;22.80;99.90
4922;DHT22;16625;53.624;10.106;2022-07-04T12:14:26;22.70;99.90
4922;DHT22;16625;53.624;10.106;2022-07-04T12:17:12;22.70;99.90
4922;DHT22;16625;53.624;10.106;2022-07-04T12:19:50;22.90;99.90
4922;DHT22;16625;53.624;10.106;2022-07-04T12:22:33;23.00;99.90
4922;DHT22;16625;53.624;10.106;2022-07-04T12:25:01;23.00;99.90
4922;DHT22;16625;53.624;10.106;2022-07-04T12:27:30;23.20;99.90
4922;DHT22;16625;53.624;10.106;2022-07-04T12:29:59;23.40;99.90
4922;DHT22;16625;53.624;10.106;2022-07-04T12:32:46;23.50;99.90
4922;DHT22;16625;53.624;10.106;2022-07-04T12:35:47;23.90;99.90
4922;DHT22;16625;53.624;10.106;2022-07-04T12:38:16;23.50;99.90
4922;DHT22;16625;53.624;10.106;2022-07-04T12:41:01;23.40;99.90
4922;DHT22;16625;53.624;10.106;2022-07-04T12:43:45;23.20;99.90
4922;DHT22;16625;53.624;10.106;2022-07-04T12:46:14;23.10;99.90
4922;DHT22;16625;53.624;10.106;2022-07-04T12:48:52;22.70;99.90
4922;DHT22;16625;53.624;10.106;2022-07-04T12:51:21;22.60;99.90
4922;DHT22;16625;53.624;10.106;2022-07-04T12:53:49;22.50;99.90
4922;DHT22;16625;53.624;10.106;2022-07-04T12:56:30;22.60;99.90
4922;DHT22;16625;53.624;10.106;2022-07-04T12:59:00;23.10;99.90
4922;DHT22;16625;53.624;10.106;2022-07-04T13:01:27;23.60;99.90
4922;DHT22;16625;53.624;10.106;2022-07-04T13:03:53;23.60;99.90
4922;DHT22;16625;53.624;10.106;2022-07-04T13:06:21;24.00;99.90
4922;DHT22;16625;53.624;10.106;2022-07-04T13:08:48;23.90;99.90
4922;DHT22;16625;53.624;10.106;2022-07-04T13:11:15;24.10;99.90
4922;DHT22;16625;53.624;10.106;2022-07-04T13:14:01;23.80;99.90
4922;DHT22;16625;53.624;10.106;2022-07-04T13:16:28;23.60;99.90
4922;DHT22;16625;53.624;10.106;2022-07-04T13:18:55;23.70;99.90
4922;DHT22;16625;53.624;10.106;2022-07-04T13:21:22;23.50;99.90
4922;DHT22;16625;53.624;10.106;2022-07-04T13:23:49;23.20;99.90
4922;DHT22;16625;53.624;10.106;2022-07-04T13:26:16;23.20;99.90
4922;DHT22;16625;53.624;10.106;2022-07-04T13:28:43;23.10;99.90
4922;DHT22;16625;53.624;10.106;2022-07-04T13:31:12;23.00;99.90
4922;DHT22;16625;53.624;10.106;2022-07-04T13:33:39;22.80;99.90
4922;DHT22;16625;53.624;10.106;2022-07-04T13:36:06;22.70;99.90
4922;DHT22;16625;53.624;10.106;2022-07-04T13:38:33;22.60;99.90
4922;DHT22;16625;53.624;10.106;2022-07-04T13:41:00;22.30;99.90
4922;DHT22;16625;53.624;10.106;2022-07-04T13:43:28;22.00;99.90
4922;DHT22;16625;53.624;10.106;2022-07-04T13:45:55;21.80;99.90
4922;DHT22;16625;53.624;10.106;2022-07-04T13:48:23;21.60;99.90
4922;DHT22;16625;53.624;10.106;2022-07-04T13:50:51;21.50;99.90
4922;DHT22;16625;53.624;10.106;2022-07-04T13:53:17;21.60;99.90
4922;DHT22;16625;53.624;10.106;2022-07-04T13:55:45;21.80;99.90
4922;DHT22;16625;53.624;10.106;2022-07-04T13:58:12;21.90;99.90
4922;DHT22;16625;53.624;10.106;2022-07-04T14:00:39;21.80;99.90
4922;DHT22;16625;53.624;10.106;2022-07-04T14:03:10;21.80;99.90
4922;DHT22;16625;53.624;10.106;2022-07-04T14:05:40;21.60;99.90
4922;DHT22;16625;53.624;10.106;2022-07-04T14:08:07;21.40;99.90
4922;DHT22;16625;53.624;10.106;2022-07-04T14:10:34;21.30;99.90
4922;DHT22;16625;53.624;10.106;2022-07-04T14:13:01;21.10;99.90
4922;DHT22;16625;53.624;10.106;2022-07-04T14:15:28;20.90;99.90
4922;DHT22;16625;53.624;10.106;2022-07-04T14:17:55;20.90;99.90
4922;DHT22;16625;53.624;10.106;2022-07-04T14:20:22;21.10;99.90
4922;DHT22;16625;53.624;10.106;2022-07-04T14:22:50;21.30;99.90
4922;DHT22;16625;53.624;10.106;2022-07-04T14:25:17;21.80;99.90
4922;DHT22;16625;53.624;10.106;2022-07-04T14:27:44;22.30;99.90
4922;DHT22;16625;53.624;10.106;2022-07-04T14:30:11;22.70;99.90
4922;DHT22;16625;53.624;10.106;2022-07-04T14:32:38;22.70;99.90
4922;DHT22;16625;53.624;10.106;2022-07-04T14:35:05;23.20;99.90
4922;DHT22;16625;53.624;10.106;2022-07-04T14:37:32;23.60;99.90
4922;DHT22;16625;53.624;10.106;2022-07-04T14:40:00;24.50;99.90
4922;DHT22;16625;53.624;10.106;2022-07-04T14:42:27;24.10;99.90
4922;DHT22;16625;53.624;10.106;2022-07-04T14:44:54;24.20;99.90
4922;DHT22;16625;53.624;10.106;2022-07-04T14:47:21;24.20;99.90
4922;DHT22;16625;53.624;10.106;2022-07-04T14:49:48;24.00;99.90
4922;DHT22;16625;53.624;10.106;2022-07-04T14:52:14;23.90;99.90
4922;DHT22;16625;53.624;10.106;2022-07-04T14:54:41;23.40;99.90
4922;DHT22;16625;53.624;10.106;2022-07-04T14:57:10;23.40;99.90
4922;DHT22;16625;53.624;10.106;2022-07-04T14:59:37;23.60;99.90
4922;DHT22;16625;53.624;10.106;2022-07-04T15:02:05;23.50;99.90
4922;DHT22;16625;53.624;10.106;2022-07-04T15:04:31;23.30;99.90
4922;DHT22;16625;53.624;10.106;2022-07-04T15:06:58;23.40;99.90
4922;DHT22;16625;53.624;10.106;2022-07-04T15:09:25;23.50;99.90
4922;DHT22;16625;53.624;10.106;2022-07-04T15:11:52;23.40;99.90
4922;DHT22;16625;53.624;10.106;2022-07-04T15:14:20;23.30;99.90
4922;DHT22;16625;53.624;10.106;2022-07-04T15:16:47;23.40;99.90
4922;DHT22;16625;53.624;10.106;2022-07-04T15:19:14;23.40;99.90
4922;DHT22;16625;53.624;10.106;2022-07-04T15:21:43;23.40;99.90
4922;DHT22;16625;53.624;10.106;2022-07-04T15:24:28;23.40;99.90
4922;DHT22;16625;53.624;10.106;2022-07-04T15:26:55;23.30;99.90
4922;DHT22;16625;53.624;10.106;2022-07-04T15:29:24;23.20;99.90
4922;DHT22;16625;53.624;10.106;2022-07-04T15:31:51;23.40;99.90
4922;DHT22;16625;53.624;10.106;2022-07-04T15:34:18;23.80;99.90
4922;DHT22;16625;53.624;10.106;2022-07-04T15:36:45;23.70;99.90
4922;DHT22;16625;53.624;10.106;2022-07-04T15:39:13;23.90;99.90
4922;DHT22;16625;53.624;10.106;2022-07-04T15:41:41;23.30;99.90